TimeEST,TemperatureF,Dew PointF,Humidity,Sea Level PressureIn,VisibilityMPH,Wind Direction,Wind SpeedMPH,Gust SpeedMPH,PrecipitationIn,Events,Conditions,WindDirDegrees,DateUTC
12:17 AM,53.6,51.8,94,29.76,10.0,NNW,5.8,-,N/A,,Mostly Cloudy,330,2012-11-07 05:17:00
12:22 AM,53.6,51.8,94,29.76,10.0,NW,10.4,-,N/A,,Overcast,320,2012-11-07 05:22:00
12:29 AM,50.0,48.2,94,29.76,9.0,WNW,13.8,20.7,N/A,,Mostly Cloudy,300,2012-11-07 05:29:00
12:44 AM,50.0,46.4,87,29.75,9.0,WNW,12.7,19.6,N/A,,Overcast,300,2012-11-07 05:44:00
12:51 AM,50.0,46.9,89,29.75,9.0,NW,12.7,23.0,N/A,,Overcast,310,2012-11-07 05:51:00
1:51 AM,48.9,46.9,93,29.74,9.0,NW,12.7,21.9,N/A,,Overcast,320,2012-11-07 06:51:00
2:51 AM,48.9,46.9,93,29.73,10.0,NNW,13.8,24.2,N/A,,Overcast,330,2012-11-07 07:51:00
3:51 AM,48.9,48.0,97,29.73,9.0,NNW,12.7,20.7,N/A,,Overcast,330,2012-11-07 08:51:00
4:51 AM,50.0,48.0,93,29.73,10.0,NNW,10.4,19.6,0.01,,Overcast,340,2012-11-07 09:51:00
5:51 AM,50.0,46.9,89,29.74,10.0,NNW,9.2,21.9,N/A,,Overcast,340,2012-11-07 10:51:00
6:51 AM,48.9,46.9,93,29.76,10.0,Variable,5.8,-,N/A,,Overcast,0,2012-11-07 11:51:00
7:51 AM,48.9,46.0,90,29.77,10.0,NNW,9.2,17.3,0.02,,Overcast,330,2012-11-07 12:51:00
8:25 AM,48.2,46.4,93,29.77,10.0,Variable,5.8,20.7,N/A,,Overcast,0,2012-11-07 13:25:00
8:51 AM,48.0,46.0,93,29.77,10.0,NNW,9.2,18.4,N/A,,Overcast,330,2012-11-07 13:51:00
9:51 AM,48.9,46.0,90,29.78,10.0,North,8.1,-,N/A,,Overcast,350,2012-11-07 14:51:00
10:51 AM,48.9,46.0,90,29.77,10.0,NNW,9.2,17.3,N/A,,Overcast,340,2012-11-07 15:51:00
11:51 AM,48.9,46.0,90,29.75,10.0,NNW,8.1,-,N/A,,Overcast,340,2012-11-07 16:51:00
12:51 PM,48.9,45.0,86,29.74,10.0,NNW,12.7,20.7,N/A,,Overcast,340,2012-11-07 17:51:00
1:51 PM,48.9,46.0,90,29.75,9.0,NNW,11.5,20.7,N/A,,Overcast,330,2012-11-07 18:51:00
2:14 PM,48.2,44.6,87,29.75,10.0,NNW,8.1,16.1,N/A,,Overcast,330,2012-11-07 19:14:00
2:51 PM,48.0,44.1,86,29.76,10.0,NNW,11.5,21.9,N/A,,Overcast,340,2012-11-07 19:51:00
3:51 PM,46.9,44.1,90,29.77,10.0,NNW,9.2,18.4,0.00,Rain,Light Rain,340,2012-11-07 20:51:00
4:13 PM,46.4,44.6,93,29.77,8.0,NNW,8.1,19.6,0.00,Rain,Light Rain,340,2012-11-07 21:13:00
4:51 PM,48.0,43.0,83,29.77,10.0,NNW,11.5,23.0,0.00,,Overcast,340,2012-11-07 21:51:00
6:51 PM,48.0,41.0,77,29.81,10.0,NNW,9.2,18.4,N/A,,Overcast,340,2012-11-07 23:51:00
7:51 PM,48.0,39.9,74,29.83,10.0,NNW,10.4,19.6,N/A,,Overcast,340,2012-11-08 00:51:00
8:51 PM,46.9,39.9,77,29.83,10.0,North,9.2,-,N/A,,Overcast,350,2012-11-08 01:51:00
9:51 PM,45.0,39.9,82,29.84,10.0,NNW,8.1,18.4,N/A,,Overcast,330,2012-11-08 02:51:00
10:51 PM,46.0,39.0,76,29.84,10.0,NNW,10.4,20.7,N/A,,Overcast,330,2012-11-08 03:51:00
11:51 PM,46.0,39.0,76,29.85,10.0,NW,11.5,20.7,N/A,,Overcast,320,2012-11-08 04:51:00